Arapahoe, Nebraska
Current Conditions -  °F | °C
As of 3:55 PM on Monday 22 Dec 2014 (Local Time) from KHDE Reporting Station
Broken Clouds Broken Clouds  
Wind Chill: 39°   Ceiling: 7500
Heat Index: 45°   Visibility: 10mi
Dew Point: 28°   Wind: 12mph
Humidity: 53%   Direction: 340°NNW
Pressure: 29.5"   Gusts: 16mph
Location:  40.3°N, 99.9°W
Report Text: KHDE 222155Z AUTO 34010G14KT 10SM SCT060 BKN075 07/M02 A2950 RMK AO2 T00711020
Loading
Personal Weather Stations






























Interactive Weather Map New forecast layout! Learn more

10-Day Weather Forecast

Advertisements
Track Severe Weather on mobile